Terminal Aerodrome Forecast
Issued by NWS

Home | Current Version | Previous Version | Text Only | Print | Product List | Glossary On
Versions: 1 2 3 4 5 6 7 8 9 10 11 12 13 14 15 16 17 18 19 20 21 22 23 24 25 26 27 28 29 30 31 32 33 34 35 36 37 38 39 40 41 42 43 44 45 46 47
000
FTUS41 KBGM 200544
TAFELM
TAF
KELM 200544Z 2006/2106 VRB03KT P6SM BKN009
     FM201200 21005KT 5SM -SHRA OVC009
     FM201500 22005KT P6SM OVC025
      TEMPO 2017/2020 27008G15KT 4SM -TSRA OVC015CB
     FM202000 33007KT 5SM BR OVC012=

USA.gov is the U.S. government's official web portal to all federal, state and local government web resources and services.